Agua de Oro, Argentina
Current Conditions -  °F | °C
As of 9:00 AM on Tuesday 21 Oct 2014 (Local Time) from SACO Reporting Station
Clear Clear  
Wind Chill: 72°   Ceiling: Unl
Heat Index: 72°   Visibility: 6mi
Dew Point: 55°   Wind: 16mph
Humidity: 57%   Direction: 20°NNE
Pressure: 30.12"   Gusts: NA
Location:  31.07°S, 64.3°W
Report Text: SACO 211200Z 02014KT CAVOK 22/13 Q1020
Loading
Personal Weather Stations






























Interactive Weather Map
Tropical Storm Tracking
New forecast layout! Learn more

10-Day Weather Forecast

Advertisements
Track Severe Weather on mobile